createdAt,value
2023-02-08T00:00:36.002Z,-3.71
2023-02-08T00:03:03.380Z,-3.82
2023-02-08T00:05:29.834Z,-3.98
2023-02-08T00:07:56.226Z,-4.10
2023-02-08T00:10:22.735Z,-4.15
2023-02-08T00:12:49.262Z,-4.11
2023-02-08T00:15:15.752Z,-4.20
2023-02-08T00:17:42.193Z,-4.11
2023-02-08T00:20:09.383Z,-4.14
2023-02-08T00:22:35.828Z,-4.02
2023-02-08T00:25:02.218Z,-3.96
2023-02-08T00:27:30.014Z,-3.99
2023-02-08T00:29:56.476Z,-4.18
2023-02-08T00:32:23.000Z,-3.70
2023-02-08T00:34:49.435Z,-3.78
2023-02-08T00:37:16.275Z,-4.01
2023-02-08T00:39:42.848Z,-4.13
2023-02-08T00:42:12.064Z,-4.07
2023-02-08T00:44:38.517Z,-4.12
2023-02-08T00:47:05.049Z,-4.15
2023-02-08T00:49:31.464Z,-4.17
2023-02-08T00:51:57.888Z,-4.13
2023-02-08T00:54:24.293Z,-4.10
2023-02-08T00:56:52.079Z,-4.33
2023-02-08T00:59:18.484Z,-4.37
2023-02-08T01:01:44.973Z,-4.41
2023-02-08T01:04:11.473Z,-4.48
2023-02-08T01:06:43.496Z,-4.47
2023-02-08T01:09:10.075Z,-4.54
2023-02-08T01:11:36.542Z,-4.53
2023-02-08T01:14:02.983Z,-4.62
2023-02-08T01:16:32.253Z,-4.64
2023-02-08T01:19:01.505Z,-4.63
2023-02-08T01:21:32.921Z,-4.67
2023-02-08T01:24:00.149Z,-4.61
2023-02-08T01:26:26.972Z,-4.60
2023-02-08T01:28:54.937Z,-4.60
2023-02-08T01:31:24.702Z,-4.63
2023-02-08T01:33:51.672Z,-4.62
2023-02-08T01:36:18.638Z,-4.65
2023-02-08T01:38:46.752Z,-4.61
2023-02-08T01:41:23.722Z,-4.40
2023-02-08T01:44:46.604Z,-4.29
2023-02-08T01:47:13.206Z,-4.22
2023-02-08T01:49:40.338Z,-4.58
2023-02-08T01:52:20.512Z,-4.55
2023-02-08T01:54:53.927Z,-4.37
2023-02-08T01:57:21.020Z,-4.26
2023-02-08T01:59:54.857Z,-4.29
2023-02-08T02:02:22.997Z,-4.64
2023-02-08T02:04:51.264Z,-4.64
2023-02-08T02:07:20.278Z,-4.60
2023-02-08T02:10:16.237Z,-4.35
2023-02-08T02:12:43.565Z,-4.31
2023-02-08T02:15:10.423Z,-4.24
2023-02-08T02:17:39.174Z,-4.19
2023-02-08T02:20:10.763Z,-4.15
2023-02-08T02:23:11.311Z,-4.38
2023-02-08T02:25:59.087Z,-4.55
2023-02-08T02:29:10.478Z,-4.28
2023-02-08T02:32:13.903Z,-4.58
2023-02-08T02:34:57.513Z,-4.67
2023-02-08T02:37:49.268Z,-4.62
2023-02-08T02:40:32.334Z,-4.48
2023-02-08T02:43:36.524Z,-4.60
2023-02-08T02:46:12.719Z,-4.68
2023-02-08T02:48:58.977Z,-4.54
2023-02-08T02:51:43.289Z,-4.65
2023-02-08T02:54:17.208Z,-4.66
2023-02-08T02:56:47.606Z,-4.67
2023-02-08T02:59:15.937Z,-4.56
2023-02-08T03:01:44.612Z,-4.40
2023-02-08T03:04:13.728Z,-4.33
2023-02-08T03:06:52.764Z,-4.26
2023-02-08T03:09:42.695Z,-4.31
2023-02-08T03:12:31.320Z,-4.42
2023-02-08T03:15:23.483Z,-4.49
2023-02-08T03:17:56.956Z,-4.51
2023-02-08T03:20:30.146Z,-4.53
2023-02-08T03:23:12.798Z,-4.76
2023-02-08T03:25:51.847Z,-4.32
2023-02-08T03:28:34.049Z,-4.49
2023-02-08T03:31:24.198Z,-4.37
2023-02-08T03:34:18.384Z,-4.32
2023-02-08T03:36:53.405Z,-4.65
2023-02-08T03:39:26.187Z,-4.44
2023-02-08T03:41:57.829Z,-4.07
2023-02-08T03:44:49.614Z,-4.41
2023-02-08T03:47:32.736Z,-4.51
2023-02-08T03:50:06.598Z,-4.38
2023-02-08T03:52:34.865Z,-4.64
2023-02-08T03:55:08.505Z,-4.59
2023-02-08T03:57:41.776Z,-4.22
2023-02-08T04:00:12.437Z,-4.35
2023-02-08T04:02:45.080Z,-4.87
2023-02-08T04:05:12.583Z,-4.94
2023-02-08T04:07:39.056Z,-4.97
2023-02-08T04:10:09.458Z,-5.30
2023-02-08T04:12:36.507Z,-5.15
2023-02-08T04:15:03.216Z,-5.06
2023-02-08T04:17:29.904Z,-5.15
2023-02-08T04:19:56.344Z,-5.15
2023-02-08T04:22:22.778Z,-5.17
2023-02-08T04:24:49.212Z,-5.22
2023-02-08T04:27:15.677Z,-5.30
2023-02-08T04:29:42.060Z,-5.49
2023-02-08T04:32:11.696Z,-5.05
2023-02-08T04:34:38.767Z,-5.26
2023-02-08T04:37:12.085Z,-5.40
2023-02-08T04:39:38.594Z,-5.09
2023-02-08T04:42:05.232Z,-5.04
2023-02-08T04:44:32.903Z,-5.24
2023-02-08T04:47:00.470Z,-5.26
2023-02-08T04:49:26.909Z,-5.16
2023-02-08T04:51:53.367Z,-5.15
2023-02-08T04:54:19.953Z,-5.20
2023-02-08T04:56:46.948Z,-5.27
2023-02-08T04:59:13.334Z,-5.24
2023-02-08T05:01:42.696Z,-5.08
2023-02-08T05:04:09.320Z,-5.14
2023-02-08T05:06:36.207Z,-5.30
2023-02-08T05:09:02.787Z,-5.00
2023-02-08T05:11:29.516Z,-4.98
2023-02-08T05:13:56.093Z,-5.00
2023-02-08T05:16:22.660Z,-4.98
2023-02-08T05:18:49.211Z,-4.70
2023-02-08T05:21:15.705Z,-4.78
2023-02-08T05:23:42.133Z,-4.63
2023-02-08T05:26:11.455Z,-4.79
2023-02-08T05:28:38.245Z,-4.82
2023-02-08T05:31:20.964Z,-4.64
2023-02-08T05:33:48.918Z,-4.54
2023-02-08T05:36:15.688Z,-4.80
2023-02-08T05:38:43.059Z,-5.00
2023-02-08T05:41:09.751Z,-4.84
2023-02-08T05:43:36.308Z,-4.79
2023-02-08T05:46:03.580Z,-4.90
2023-02-08T05:48:31.830Z,-5.01
2023-02-08T05:50:59.353Z,-4.90
2023-02-08T05:53:26.241Z,-4.94
2023-02-08T05:55:53.182Z,-4.74
2023-02-08T05:58:19.733Z,-4.95
2023-02-08T06:00:46.182Z,-5.17
2023-02-08T06:03:12.830Z,-5.46
2023-02-08T06:05:40.740Z,-5.55
2023-02-08T06:08:07.938Z,-5.63
2023-02-08T06:10:35.402Z,-5.79
2023-02-08T06:13:02.179Z,-5.83
2023-02-08T06:15:28.792Z,-5.78
2023-02-08T06:17:55.371Z,-5.87
2023-02-08T06:20:21.930Z,-5.83
2023-02-08T06:22:48.354Z,-5.68
2023-02-08T06:25:14.906Z,-5.86
2023-02-08T06:27:41.357Z,-5.94
2023-02-08T06:30:08.093Z,-5.95
2023-02-08T06:32:34.563Z,-5.88
2023-02-08T06:35:01.253Z,-5.73
2023-02-08T06:37:27.667Z,-5.78
2023-02-08T06:39:54.415Z,-5.66
2023-02-08T06:42:21.079Z,-5.66
2023-02-08T06:44:55.074Z,-5.64
2023-02-08T06:47:23.200Z,-5.60
2023-02-08T06:49:49.727Z,-5.64
2023-02-08T06:52:16.283Z,-5.88
2023-02-08T06:54:43.222Z,-5.77
2023-02-08T06:57:12.719Z,-5.70
2023-02-08T06:59:39.962Z,-5.71
2023-02-08T07:02:06.945Z,-5.81
2023-02-08T07:04:33.428Z,-5.55
2023-02-08T07:06:59.859Z,-5.74
2023-02-08T07:09:26.405Z,-5.79
2023-02-08T07:11:52.833Z,-5.84
2023-02-08T07:14:19.429Z,-5.83
2023-02-08T07:16:48.478Z,-5.85
2023-02-08T07:19:14.978Z,-5.89
2023-02-08T07:21:41.767Z,-5.85
2023-02-08T07:24:08.226Z,-5.64
2023-02-08T07:26:34.644Z,-5.65
2023-02-08T07:29:01.305Z,-5.73
2023-02-08T07:31:27.806Z,-5.63
2023-02-08T07:33:54.208Z,-5.41
2023-02-08T07:36:20.791Z,-5.47
2023-02-08T07:38:47.216Z,-5.53
2023-02-08T07:41:14.465Z,-5.62
2023-02-08T07:43:49.106Z,-5.48
2023-02-08T07:46:20.933Z,-5.47
2023-02-08T07:48:49.955Z,-5.10
2023-02-08T07:51:16.394Z,-5.03
2023-02-08T07:53:42.867Z,-4.79
2023-02-08T07:56:10.469Z,-4.80
2023-02-08T07:58:37.604Z,-4.69
2023-02-08T08:01:19.727Z,-4.08
2023-02-08T08:03:48.442Z,-3.65
2023-02-08T08:06:14.988Z,-3.83
2023-02-08T08:08:41.396Z,-2.17
2023-02-08T08:11:07.842Z,-1.73
2023-02-08T08:13:34.250Z,-1.48
2023-02-08T08:16:00.694Z,-1.27
2023-02-08T08:18:27.481Z,-1.47
2023-02-08T08:20:53.945Z,-0.34
2023-02-08T08:23:20.355Z,-0.55
2023-02-08T08:25:46.835Z,-0.06
2023-02-08T08:28:13.441Z,0.30
2023-02-08T08:30:44.193Z,-0.22
2023-02-08T08:33:13.941Z,-0.64
2023-02-08T08:35:40.892Z,0.05
2023-02-08T08:38:07.357Z,0.55
2023-02-08T08:40:33.887Z,0.30
2023-02-08T08:43:00.320Z,-0.19
2023-02-08T08:45:26.855Z,-0.50
2023-02-08T08:47:53.532Z,-0.50
2023-02-08T08:50:20.084Z,-0.71
2023-02-08T08:52:46.726Z,-0.85
2023-02-08T08:55:13.431Z,-0.80
2023-02-08T08:57:39.890Z,-0.67
2023-02-08T09:00:06.759Z,0.09
2023-02-08T09:02:33.197Z,-0.18
2023-02-08T09:05:00.420Z,0.81
2023-02-08T09:07:26.960Z,0.04
2023-02-08T09:09:53.382Z,0.41
2023-02-08T09:12:19.797Z,0.55
2023-02-08T09:14:46.240Z,0.29
2023-02-08T09:17:12.696Z,1.77
2023-02-08T09:19:39.321Z,1.47
2023-02-08T09:22:07.418Z,2.88
2023-02-08T09:24:34.885Z,2.98
2023-02-08T09:27:01.630Z,3.15
2023-02-08T09:29:30.337Z,1.73
2023-02-08T09:31:57.302Z,2.29
2023-02-08T09:34:24.144Z,3.58
2023-02-08T09:36:50.895Z,3.54
2023-02-08T09:39:23.259Z,2.11
2023-02-08T09:42:02.528Z,3.47
2023-02-08T09:45:02.314Z,2.44
2023-02-08T09:47:33.179Z,2.59
2023-02-08T09:50:21.061Z,3.85
2023-02-08T09:53:00.622Z,3.46
2023-02-08T09:55:37.456Z,4.79
2023-02-08T09:58:19.225Z,2.65
2023-02-08T10:00:48.162Z,3.57
2023-02-08T10:03:27.507Z,3.84
2023-02-08T10:05:54.287Z,4.71
2023-02-08T10:08:20.936Z,3.37
2023-02-08T10:10:58.410Z,3.87
2023-02-08T10:13:42.186Z,4.44
2023-02-08T10:16:50.847Z,3.33
2023-02-08T10:19:24.466Z,2.62
2023-02-08T10:22:00.265Z,3.62
2023-02-08T10:24:45.261Z,3.33
2023-02-08T10:27:30.475Z,4.89
2023-02-08T10:30:22.008Z,4.18
2023-02-08T10:33:03.236Z,5.44
2023-02-08T10:35:37.645Z,4.94
2023-02-08T10:38:25.150Z,5.16
2023-02-08T10:41:17.411Z,4.59
2023-02-08T10:43:52.170Z,4.89
2023-02-08T10:46:32.681Z,3.63
2023-02-08T10:49:16.908Z,4.24
2023-02-08T10:51:46.190Z,5.01
2023-02-08T10:54:14.330Z,4.44
2023-02-08T10:56:49.720Z,5.60
2023-02-08T10:59:31.749Z,3.68
2023-02-08T11:01:59.184Z,3.73
2023-02-08T11:04:26.093Z,4.34
2023-02-08T11:06:54.627Z,4.71
2023-02-08T11:09:30.254Z,4.04
2023-02-08T11:12:02.441Z,5.74
2023-02-08T11:14:46.785Z,5.00
2023-02-08T11:17:34.082Z,4.44
2023-02-08T11:20:01.400Z,3.72
2023-02-08T11:22:34.475Z,4.13
2023-02-08T11:25:06.860Z,4.33
2023-02-08T11:27:37.457Z,4.50
2023-02-08T11:30:24.559Z,4.80
2023-02-08T11:33:16.076Z,6.46
2023-02-08T11:36:05.158Z,6.56
2023-02-08T11:38:35.082Z,7.61
2023-02-08T11:41:04.646Z,7.25
2023-02-08T11:43:34.818Z,5.67
2023-02-08T11:46:04.027Z,5.13
2023-02-08T11:48:45.507Z,6.91
2023-02-08T11:51:27.345Z,7.46
2023-02-08T11:53:55.200Z,8.55
2023-02-08T11:56:24.959Z,6.45
2023-02-08T11:59:23.580Z,6.20
2023-02-08T12:01:50.144Z,6.99
2023-02-08T12:04:18.047Z,7.52
2023-02-08T12:06:56.845Z,6.73
2023-02-08T12:10:16.852Z,9.22
2023-02-08T12:13:02.429Z,7.55
2023-02-08T12:15:57.381Z,7.23
2023-02-08T12:18:45.072Z,8.40
2023-02-08T12:21:19.324Z,8.03
2023-02-08T12:24:21.504Z,9.76
2023-02-08T12:27:06.748Z,7.22
2023-02-08T12:30:09.396Z,8.18
2023-02-08T12:32:45.601Z,7.57
2023-02-08T12:35:57.595Z,5.81
2023-02-08T12:39:22.785Z,6.13
2023-02-08T12:42:06.313Z,7.60
2023-02-08T12:44:43.713Z,7.51
2023-02-08T12:47:16.307Z,8.25
2023-02-08T12:50:09.193Z,7.25
2023-02-08T12:52:44.192Z,8.18
2023-02-08T12:55:29.098Z,7.38
2023-02-08T12:58:28.164Z,7.50
2023-02-08T13:00:59.020Z,9.44
2023-02-08T13:03:43.837Z,8.33
2023-02-08T13:06:18.153Z,6.63
2023-02-08T13:09:06.391Z,7.80
2023-02-08T13:11:42.057Z,8.48
2023-02-08T13:14:16.366Z,8.58
2023-02-08T13:16:45.647Z,8.05
2023-02-08T13:19:31.713Z,7.30
2023-02-08T13:21:59.732Z,5.72
2023-02-08T13:24:33.472Z,8.38
2023-02-08T13:26:59.994Z,8.16
2023-02-08T13:29:29.399Z,5.85
2023-02-08T13:32:18.631Z,8.27
2023-02-08T13:34:53.563Z,7.47
2023-02-08T13:37:28.908Z,6.90
2023-02-08T13:40:05.890Z,7.65
2023-02-08T13:42:42.798Z,7.72
2023-02-08T13:45:22.362Z,8.40
2023-02-08T13:47:59.774Z,6.10
2023-02-08T13:50:35.064Z,6.91
2023-02-08T13:53:02.456Z,5.71
2023-02-08T13:55:28.890Z,7.00
2023-02-08T13:57:57.561Z,5.37
2023-02-08T14:00:28.584Z,4.10
2023-02-08T14:03:07.335Z,4.35
2023-02-08T14:05:48.577Z,4.67
2023-02-08T14:08:31.211Z,4.18
2023-02-08T14:11:04.912Z,4.88
2023-02-08T14:13:36.031Z,4.44
2023-02-08T14:16:40.044Z,4.55
2023-02-08T14:19:22.836Z,4.47
2023-02-08T14:21:59.155Z,4.20
2023-02-08T14:24:34.294Z,4.20
2023-02-08T14:27:20.440Z,4.50
2023-02-08T14:30:05.136Z,3.91
2023-02-08T14:32:34.601Z,3.95
2023-02-08T14:35:04.274Z,3.90
2023-02-08T14:37:33.434Z,3.56
2023-02-08T14:40:35.072Z,3.68
2023-02-08T14:43:19.517Z,3.43
2023-02-08T14:45:49.217Z,3.42
2023-02-08T14:48:21.262Z,3.39
2023-02-08T14:50:56.517Z,3.21
2023-02-08T14:53:34.434Z,3.05
2023-02-08T14:56:17.304Z,2.98
2023-02-08T14:58:56.056Z,2.93
2023-02-08T15:01:47.038Z,2.53
2023-02-08T15:04:18.235Z,2.66
2023-02-08T15:07:00.178Z,2.30
2023-02-08T15:09:34.891Z,2.43
2023-02-08T15:12:24.106Z,2.35
2023-02-08T15:14:54.045Z,2.32
2023-02-08T15:17:29.400Z,2.28
2023-02-08T15:19:56.316Z,2.14
2023-02-08T15:22:29.355Z,2.06
2023-02-08T15:24:59.311Z,1.91
2023-02-08T15:27:29.725Z,1.83
2023-02-08T15:29:56.585Z,1.61
2023-02-08T15:32:25.396Z,1.72
2023-02-08T15:35:00.417Z,1.90
2023-02-08T15:37:32.207Z,1.64
2023-02-08T15:40:00.100Z,1.52
2023-02-08T15:42:29.977Z,1.30
2023-02-08T15:44:56.946Z,1.33
2023-02-08T15:47:35.825Z,1.28
2023-02-08T15:50:05.432Z,1.14
2023-02-08T15:52:35.196Z,1.13
2023-02-08T15:55:02.408Z,1.00
2023-02-08T15:57:46.235Z,0.49
2023-02-08T16:00:37.646Z,0.68
2023-02-08T16:03:23.901Z,0.61
2023-02-08T16:05:58.881Z,0.62
2023-02-08T16:08:29.723Z,0.58
2023-02-08T16:11:02.830Z,0.47
2023-02-08T16:13:35.656Z,0.41
2023-02-08T16:16:16.317Z,0.51
2023-02-08T16:18:46.287Z,0.41
2023-02-08T16:21:29.504Z,0.35
2023-02-08T16:23:58.908Z,0.33
2023-02-08T16:26:32.397Z,0.33
2023-02-08T16:29:01.910Z,0.27
2023-02-08T16:31:31.354Z,0.29
2023-02-08T16:34:14.319Z,0.35
2023-02-08T16:36:43.576Z,0.09
2023-02-08T16:39:16.348Z,0.02
2023-02-08T16:42:15.100Z,-0.07
2023-02-08T16:44:58.912Z,-0.04
2023-02-08T16:47:28.496Z,-0.10
2023-02-08T16:49:55.048Z,-0.08
2023-02-08T16:52:22.043Z,-0.14
2023-02-08T16:54:49.111Z,-0.15
2023-02-08T16:57:15.570Z,-0.21
2023-02-08T16:59:42.228Z,-0.16
2023-02-08T17:02:14.487Z,-0.23
2023-02-08T17:04:40.966Z,-0.40
2023-02-08T17:07:18.612Z,-0.20
2023-02-08T17:09:45.449Z,-0.22
2023-02-08T17:12:21.795Z,-0.19
2023-02-08T17:14:49.088Z,-0.24
2023-02-08T17:17:15.584Z,-0.25
2023-02-08T17:19:47.539Z,-0.18
2023-02-08T17:22:14.454Z,-0.20
2023-02-08T17:24:41.448Z,-0.25
2023-02-08T17:27:13.074Z,-0.26
2023-02-08T17:29:40.261Z,-0.29
2023-02-08T17:32:06.722Z,-0.17
2023-02-08T17:34:33.412Z,-0.29
2023-02-08T17:37:00.171Z,-0.40
2023-02-08T17:39:26.832Z,-0.42
2023-02-08T17:41:53.671Z,-0.38
2023-02-08T17:44:20.666Z,-0.39
2023-02-08T17:46:47.384Z,-0.49
2023-02-08T17:49:13.873Z,-0.44
2023-02-08T17:51:40.774Z,-0.51
2023-02-08T17:54:09.722Z,-0.45
2023-02-08T17:56:36.850Z,-0.47
2023-02-08T17:59:05.417Z,-0.44
2023-02-08T18:01:32.629Z,-0.55
2023-02-08T18:04:00.144Z,-0.57
2023-02-08T18:06:27.145Z,-0.58
2023-02-08T18:08:55.082Z,-0.55
2023-02-08T18:11:23.707Z,-0.58
2023-02-08T18:13:53.297Z,-0.60
2023-02-08T18:16:25.608Z,-0.74
2023-02-08T18:18:56.762Z,-0.81
2023-02-08T18:21:25.798Z,-1.00
2023-02-08T18:23:52.699Z,-0.98
2023-02-08T18:26:22.169Z,-1.16
2023-02-08T18:28:49.283Z,-1.12
2023-02-08T18:31:20.488Z,-1.11
2023-02-08T18:33:48.672Z,-1.15
2023-02-08T18:36:21.811Z,-1.03
2023-02-08T18:38:51.813Z,-1.25
2023-02-08T18:41:22.873Z,-1.28
2023-02-08T18:43:49.716Z,-1.42
2023-02-08T18:46:18.407Z,-1.37
2023-02-08T18:48:46.238Z,-1.45
2023-02-08T18:51:16.373Z,-1.53
2023-02-08T18:53:43.291Z,-1.56
2023-02-08T18:56:12.206Z,-1.55
2023-02-08T18:58:38.708Z,-1.39
2023-02-08T19:01:16.529Z,-1.33
2023-02-08T19:03:43.785Z,-1.28
2023-02-08T19:06:13.413Z,-1.24
2023-02-08T19:08:41.361Z,-1.30
2023-02-08T19:11:42.128Z,-1.28
2023-02-08T19:14:12.548Z,-1.33
2023-02-08T19:16:39.578Z,-1.27
2023-02-08T19:19:07.050Z,-1.31
2023-02-08T19:21:33.993Z,-1.31
2023-02-08T19:24:02.084Z,-1.29
2023-02-08T19:26:32.652Z,-1.30
2023-02-08T19:29:03.274Z,-1.41
2023-02-08T19:31:30.808Z,-1.35
2023-02-08T19:33:59.203Z,-1.34
2023-02-08T19:36:29.185Z,-1.42
2023-02-08T19:38:56.474Z,-1.46
2023-02-08T19:41:26.363Z,-1.40
2023-02-08T19:43:53.212Z,-1.55
2023-02-08T19:46:22.435Z,-1.57
2023-02-08T19:48:51.137Z,-1.73
2023-02-08T19:51:18.801Z,-1.69
2023-02-08T19:53:45.632Z,-1.79
2023-02-08T19:56:15.203Z,-1.86
2023-02-08T19:58:42.130Z,-1.88
2023-02-08T20:01:19.051Z,-1.99
2023-02-08T20:03:46.976Z,-2.31
2023-02-08T20:06:22.833Z,-2.12
2023-02-08T20:08:49.595Z,-1.93
2023-02-08T20:11:20.550Z,-2.14
2023-02-08T20:13:47.876Z,-2.62
2023-02-08T20:16:14.499Z,-2.35
2023-02-08T20:18:41.071Z,-2.35
2023-02-08T20:21:08.125Z,-2.44
2023-02-08T20:23:35.208Z,-2.47
2023-02-08T20:26:07.390Z,-2.59
2023-02-08T20:28:35.122Z,-2.64
2023-02-08T20:31:06.026Z,-2.58
2023-02-08T20:33:33.963Z,-2.67
2023-02-08T20:36:10.956Z,-2.90
2023-02-08T20:38:38.138Z,-2.72
2023-02-08T20:41:06.442Z,-2.71
2023-02-08T20:43:33.629Z,-2.64
2023-02-08T20:46:00.968Z,-2.77
2023-02-08T20:48:27.538Z,-2.81
2023-02-08T20:50:53.996Z,-2.79
2023-02-08T20:53:20.538Z,-3.41
2023-02-08T20:55:47.154Z,-2.95
2023-02-08T20:58:13.620Z,-3.08
2023-02-08T21:00:42.379Z,-3.40
2023-02-08T21:03:10.049Z,-3.65
2023-02-08T21:05:36.634Z,-3.20
2023-02-08T21:08:03.126Z,-3.18
2023-02-08T21:10:29.696Z,-3.23
2023-02-08T21:12:56.334Z,-3.21
2023-02-08T21:15:22.879Z,-3.18
2023-02-08T21:17:49.521Z,-3.32
2023-02-08T21:20:16.129Z,-3.61
2023-02-08T21:22:42.756Z,-3.41
2023-02-08T21:25:09.641Z,-3.71
2023-02-08T21:27:36.319Z,-3.71
2023-02-08T21:30:03.096Z,-3.85
2023-02-08T21:32:29.893Z,-3.54
2023-02-08T21:34:56.372Z,-3.88
2023-02-08T21:37:23.111Z,-3.55
2023-02-08T21:39:49.569Z,-3.44
2023-02-08T21:42:16.485Z,-3.36
2023-02-08T21:44:42.942Z,-3.27
2023-02-08T21:47:09.405Z,-3.33
2023-02-08T21:49:54.544Z,-3.26
2023-02-08T21:52:39.755Z,-3.34
2023-02-08T21:55:06.417Z,-3.81
2023-02-08T21:57:38.327Z,-3.62
2023-02-08T22:00:08.364Z,-3.83
2023-02-08T22:02:34.933Z,-3.78
2023-02-08T22:05:22.375Z,-3.87
2023-02-08T22:07:52.304Z,-3.93
2023-02-08T22:10:22.045Z,-4.10
2023-02-08T22:12:48.879Z,-4.06
2023-02-08T22:15:17.993Z,-4.03
2023-02-08T22:17:44.628Z,-4.13
2023-02-08T22:20:12.677Z,-4.23
2023-02-08T22:22:39.445Z,-4.16
2023-02-08T22:25:06.826Z,-4.18
2023-02-08T22:27:34.334Z,-4.15
2023-02-08T22:30:00.843Z,-4.21
2023-02-08T22:32:27.357Z,-4.38
2023-02-08T22:34:53.809Z,-4.48
2023-02-08T22:37:20.739Z,-4.44
2023-02-08T22:39:47.213Z,-4.45
2023-02-08T22:42:14.667Z,-4.52
2023-02-08T22:44:43.302Z,-4.52
2023-02-08T22:47:11.696Z,-4.53
2023-02-08T22:49:38.843Z,-4.53
2023-02-08T22:52:08.188Z,-4.57
2023-02-08T22:54:34.746Z,-4.49
2023-02-08T22:57:01.209Z,-4.57
2023-02-08T22:59:27.723Z,-4.60
2023-02-08T23:01:54.241Z,-4.58
2023-02-08T23:04:21.836Z,-4.62
2023-02-08T23:06:48.329Z,-4.59
2023-02-08T23:09:14.972Z,-4.53
2023-02-08T23:11:41.946Z,-4.64
2023-02-08T23:14:08.956Z,-4.57
2023-02-08T23:16:36.188Z,-4.68
2023-02-08T23:19:03.739Z,-4.50
2023-02-08T23:21:30.229Z,-4.78
2023-02-08T23:23:57.316Z,-4.38
2023-02-08T23:26:24.055Z,-4.34
2023-02-08T23:28:52.580Z,-4.62
2023-02-08T23:31:20.012Z,-4.56
2023-02-08T23:33:46.810Z,-4.89
2023-02-08T23:36:16.881Z,-4.69
2023-02-08T23:38:43.890Z,-4.54
2023-02-08T23:41:17.182Z,-4.61
2023-02-08T23:43:43.818Z,-4.51
2023-02-08T23:46:15.985Z,-4.51
2023-02-08T23:48:43.245Z,-4.66
2023-02-08T23:51:10.792Z,-4.56
2023-02-08T23:53:37.795Z,-4.52
2023-02-08T23:56:24.717Z,-4.55
2023-02-08T23:58:54.191Z,-4.40
